createdAt,value
2019-05-05T00:00:17.004Z,99778
2019-05-05T00:05:16.976Z,99776
2019-05-05T00:10:17.001Z,99793
2019-05-05T00:15:17.010Z,99799
2019-05-05T00:20:17.007Z,99796
2019-05-05T00:25:16.999Z,99792
2019-05-05T00:30:16.974Z,99798
2019-05-05T00:35:17.018Z,99808
2019-05-05T00:40:17.013Z,99813
2019-05-05T00:45:16.984Z,99817
2019-05-05T00:50:16.984Z,99828
2019-05-05T00:55:17.048Z,99838
2019-05-05T01:00:17.006Z,99839
2019-05-05T01:05:16.999Z,99852
2019-05-05T01:10:17.034Z,99857
2019-05-05T01:15:17.025Z,99869
2019-05-05T01:20:17.008Z,99876
2019-05-05T01:25:17.072Z,99889
2019-05-05T01:30:17.027Z,99890
2019-05-05T01:35:17.031Z,99887
2019-05-05T01:40:17.025Z,99898
2019-05-05T01:45:17.042Z,99901
2019-05-05T01:50:20.792Z,99907
2019-05-05T01:55:17.024Z,99923
2019-05-05T02:00:17.040Z,99920
2019-05-05T02:05:16.999Z,99932
2019-05-05T02:10:17.023Z,99938
2019-05-05T02:15:17.048Z,99949
2019-05-05T02:20:28.504Z,99951
2019-05-05T02:25:17.029Z,99950
2019-05-05T02:30:17.035Z,99939
2019-05-05T02:35:17.044Z,99960
2019-05-05T02:40:17.048Z,99951
2019-05-05T02:45:17.059Z,99962
2019-05-05T02:50:17.073Z,99967
2019-05-05T02:55:17.029Z,99980
2019-05-05T03:00:17.073Z,99982
2019-05-05T03:05:17.055Z,99982
2019-05-05T03:10:17.096Z,99993
2019-05-05T03:15:17.047Z,100005
2019-05-05T03:20:17.060Z,100016
2019-05-05T03:25:17.036Z,100018
2019-05-05T03:30:17.056Z,100024
2019-05-05T03:35:17.069Z,100021
2019-05-05T03:40:17.049Z,100013
2019-05-05T03:45:17.042Z,100027
2019-05-05T03:50:17.084Z,100034
2019-05-05T03:55:17.067Z,100036
2019-05-05T04:00:17.037Z,100036
2019-05-05T04:05:17.105Z,100036
2019-05-05T04:10:17.057Z,100033
2019-05-05T04:15:17.082Z,100029
2019-05-05T04:20:17.062Z,100024
2019-05-05T04:25:17.068Z,100028
2019-05-05T04:30:17.061Z,100031
2019-05-05T04:35:17.103Z,100045
2019-05-05T04:40:17.045Z,100050
2019-05-05T04:45:17.102Z,100051
2019-05-05T04:50:18.334Z,100049
2019-05-05T04:55:17.101Z,100056
2019-05-05T05:00:17.120Z,100064
2019-05-05T05:05:17.083Z,100061
2019-05-05T05:10:17.066Z,100077
2019-05-05T05:15:17.105Z,100081
2019-05-05T05:20:17.055Z,100079
2019-05-05T05:25:17.069Z,100088
2019-05-05T05:30:17.098Z,100086
2019-05-05T05:35:17.067Z,100108
2019-05-05T05:40:17.066Z,100097
2019-05-05T05:45:17.109Z,100110
2019-05-05T05:50:17.090Z,100110
2019-05-05T05:55:17.084Z,100112
2019-05-05T06:00:17.133Z,100119
2019-05-05T06:05:17.078Z,100121
2019-05-05T06:10:23.784Z,100119
2019-05-05T06:15:17.119Z,100131
2019-05-05T06:20:17.095Z,100135
2019-05-05T06:25:17.134Z,100152
2019-05-05T06:30:17.141Z,100144
2019-05-05T06:35:17.094Z,100137
2019-05-05T06:40:17.099Z,100125
2019-05-05T06:45:17.148Z,100116
2019-05-05T06:50:17.160Z,100121
2019-05-05T06:55:17.120Z,100122
2019-05-05T07:00:17.181Z,100118
2019-05-05T07:05:17.129Z,100124
2019-05-05T07:10:17.111Z,100121
2019-05-05T07:15:17.149Z,100130
2019-05-05T07:20:17.114Z,100134
2019-05-05T07:25:17.120Z,100151
2019-05-05T07:30:17.146Z,100152
2019-05-05T07:35:17.128Z,100156
2019-05-05T07:40:17.113Z,100154
2019-05-05T07:45:21.933Z,100157
2019-05-05T07:50:28.218Z,100170
2019-05-05T07:55:17.158Z,100177
2019-05-05T08:00:17.164Z,100178
2019-05-05T08:05:17.126Z,100179
2019-05-05T08:10:17.126Z,100186
2019-05-05T08:15:17.162Z,100191
2019-05-05T08:20:19.290Z,100199
2019-05-05T08:25:17.128Z,100208
2019-05-05T08:30:17.171Z,100222
2019-05-05T08:35:17.171Z,100224
2019-05-05T08:40:17.137Z,100219
2019-05-05T08:45:17.186Z,100211
2019-05-05T08:50:17.146Z,100208
2019-05-05T08:55:17.139Z,100213
2019-05-05T09:00:17.173Z,100213
2019-05-05T09:05:17.147Z,100205
2019-05-05T09:10:17.152Z,100217
2019-05-05T09:15:17.186Z,100221
2019-05-05T09:20:17.153Z,100229
2019-05-05T09:25:17.153Z,100218
2019-05-05T09:30:17.222Z,100211
2019-05-05T09:35:17.156Z,100203
2019-05-05T09:40:17.156Z,100207
2019-05-05T09:45:17.193Z,100215
2019-05-05T09:50:17.287Z,100219
2019-05-05T09:55:17.158Z,100218
2019-05-05T10:00:17.194Z,100210
2019-05-05T10:05:17.153Z,100211
2019-05-05T10:10:17.164Z,100215
2019-05-05T10:15:17.197Z,100232
2019-05-05T10:20:17.171Z,100236
2019-05-05T10:25:17.166Z,100243
2019-05-05T10:30:17.214Z,100252
2019-05-05T10:35:17.171Z,100248
2019-05-05T10:40:17.190Z,100237
2019-05-05T10:45:17.212Z,100244
2019-05-05T10:50:17.187Z,100245
2019-05-05T10:55:17.176Z,100238
2019-05-05T11:00:17.205Z,100233
2019-05-05T11:05:17.191Z,100232
2019-05-05T11:10:17.181Z,100240
2019-05-05T11:15:17.237Z,100242
2019-05-05T11:20:17.178Z,100238
2019-05-05T11:25:17.207Z,100240
2019-05-05T11:30:17.234Z,100237
2019-05-05T11:35:17.245Z,100226
2019-05-05T11:40:17.201Z,100218
2019-05-05T11:45:17.199Z,100233
2019-05-05T11:50:17.233Z,100222
2019-05-05T11:55:17.192Z,100233
2019-05-05T12:00:17.197Z,100239
2019-05-05T12:05:17.237Z,100239
2019-05-05T12:10:17.216Z,100243
2019-05-05T12:15:17.199Z,100250
2019-05-05T12:20:17.247Z,100244
2019-05-05T12:25:25.914Z,100240
2019-05-05T12:30:17.227Z,100246
2019-05-05T12:35:17.241Z,100234
2019-05-05T12:40:17.213Z,100236
2019-05-05T12:45:17.220Z,100244
2019-05-05T12:50:17.278Z,100236
2019-05-05T12:55:17.222Z,100245
2019-05-05T13:00:17.227Z,100244
2019-05-05T13:05:17.241Z,100244
2019-05-05T13:10:17.220Z,100231
2019-05-05T13:15:17.220Z,100239
2019-05-05T13:20:17.256Z,100227
2019-05-05T13:25:17.225Z,100234
2019-05-05T13:30:17.228Z,100236
2019-05-05T13:35:17.259Z,100233
2019-05-05T13:40:17.235Z,100242
2019-05-05T13:45:17.260Z,100249
2019-05-05T13:50:17.268Z,100241
2019-05-05T13:55:17.238Z,100237
2019-05-05T14:00:17.231Z,100241
2019-05-05T14:05:17.270Z,100245
2019-05-05T14:10:17.246Z,100233
2019-05-05T14:15:17.251Z,100232
2019-05-05T14:20:17.280Z,100226
2019-05-05T14:25:17.259Z,100227
2019-05-05T14:30:17.254Z,100227
2019-05-05T14:35:17.294Z,100230
2019-05-05T14:40:17.254Z,100229
2019-05-05T14:45:17.253Z,100237
2019-05-05T14:50:17.285Z,100235
2019-05-05T14:55:17.261Z,100239
2019-05-05T15:00:17.313Z,100236
2019-05-05T15:05:17.299Z,100236
2019-05-05T15:10:17.265Z,100220
2019-05-05T15:15:17.266Z,100220
2019-05-05T15:20:17.328Z,100218
2019-05-05T15:25:17.271Z,100216
2019-05-05T15:30:17.269Z,100220
2019-05-05T15:35:17.306Z,100224
2019-05-05T15:40:17.278Z,100224
2019-05-05T15:45:17.280Z,100219
2019-05-05T15:50:17.309Z,100222
2019-05-05T15:55:17.277Z,100221
2019-05-05T16:00:17.300Z,100230
2019-05-05T16:05:17.314Z,100230
2019-05-05T16:10:17.294Z,100234
2019-05-05T16:15:17.336Z,100220
2019-05-05T16:20:17.409Z,100220
2019-05-05T16:30:17.098Z,100227
2019-05-05T16:35:17.063Z,100230
2019-05-05T16:40:17.079Z,100225
2019-05-05T16:45:17.111Z,100224
2019-05-05T16:50:17.087Z,100229
2019-05-05T16:55:17.091Z,100228
2019-05-05T17:00:17.147Z,100224
2019-05-05T17:05:17.079Z,100229
2019-05-05T17:10:17.108Z,100236
2019-05-05T17:15:17.115Z,100233
2019-05-05T17:20:17.052Z,100238
2019-05-05T17:25:17.057Z,100238
2019-05-05T17:30:17.067Z,100235
2019-05-05T17:35:17.049Z,100241
2019-05-05T17:40:17.041Z,100241
2019-05-05T17:45:17.069Z,100249
2019-05-05T17:50:17.072Z,100250
2019-05-05T17:55:17.056Z,100252
2019-05-05T18:00:17.056Z,100255
2019-05-05T18:05:17.055Z,100246
2019-05-05T18:10:17.057Z,100247
2019-05-05T18:15:17.043Z,100258
2019-05-05T18:20:17.046Z,100273
2019-05-05T18:25:17.059Z,100272
2019-05-05T18:30:17.028Z,100268
2019-05-05T18:35:17.061Z,100269
2019-05-05T18:40:17.091Z,100281
2019-05-05T18:45:17.045Z,100288
2019-05-05T18:50:17.126Z,100300
2019-05-05T18:55:17.089Z,100288
2019-05-05T19:00:17.034Z,100289
2019-05-05T19:05:17.043Z,100301
2019-05-05T19:10:17.046Z,100294
2019-05-05T19:15:17.044Z,100289
2019-05-05T19:20:17.055Z,100300
2019-05-05T19:25:17.047Z,100299
2019-05-05T19:30:17.047Z,100299
2019-05-05T19:35:17.037Z,100297
2019-05-05T19:40:17.033Z,100296
2019-05-05T19:45:17.033Z,100304
2019-05-05T19:50:17.228Z,100302
2019-05-05T19:55:17.056Z,100309
2019-05-05T20:00:17.033Z,100309
2019-05-05T20:05:17.027Z,100304
2019-05-05T20:10:17.019Z,100312
2019-05-05T20:15:17.027Z,100308
2019-05-05T20:20:17.019Z,100305
2019-05-05T20:25:17.050Z,100298
2019-05-05T20:30:16.989Z,100303
2019-05-05T20:35:16.989Z,100298
2019-05-05T20:40:17.020Z,100301
2019-05-05T20:45:16.982Z,100304
2019-05-05T20:50:16.976Z,100294
2019-05-05T20:55:17.048Z,100297
2019-05-05T21:00:16.983Z,100296
2019-05-05T21:05:16.986Z,100303
2019-05-05T21:10:17.009Z,100301
2019-05-05T21:15:16.969Z,100297
2019-05-05T21:20:16.982Z,100294
2019-05-05T21:25:17.004Z,100295
2019-05-05T21:30:16.991Z,100295
2019-05-05T21:35:16.957Z,100287
2019-05-05T21:40:16.995Z,100293
2019-05-05T21:45:17.005Z,100285
